Time,TemperatureF,DewpointF,PressureIn,WindDirection,WindDirectionDegrees,WindSpeedMPH,WindSpeedGustMPH,Humidity,HourlyPrecipIn,Conditions,Clouds,dailyrainin,SoftwareType,DateUTC
2013-03-11 00:10:00,60.4,58.0,30.15,East,95,0.0,-999.0,90,-99.99,,,0.00,weatherlink.com 1.10,2013-03-11 04:10:00,
2013-03-11 00:25:00,60.2,58.0,30.14,ESE,123,0.0,-999.0,91,-99.99,,,0.00,weatherlink.com 1.10,2013-03-11 04:25:00,
2013-03-11 00:41:00,59.4,57.0,30.14,ESE,122,0.0,-999.0,91,-99.99,,,0.00,weatherlink.com 1.10,2013-03-11 04:41:00,
2013-03-11 00:56:00,59.0,57.0,30.13,ESE,121,0.0,-999.0,92,-99.99,,,0.00,weatherlink.com 1.10,2013-03-11 04:56:00,
2013-03-11 01:11:00,58.3,56.0,30.13,ESE,121,0.0,-999.0,93,-99.99,,,0.00,weatherlink.com 1.10,2013-03-11 05:11:00,
2013-03-11 01:30:00,58.1,56.0,30.13,ESE,121,0.0,-999.0,93,-99.99,,,0.00,weatherlink.com 1.10,2013-03-11 05:30:00,
2013-03-11 01:41:00,58.1,56.0,30.12,ESE,121,0.0,-999.0,94,-99.99,,,0.00,weatherlink.com 1.10,2013-03-11 05:41:00,
2013-03-11 01:56:00,58.1,56.0,30.11,ESE,122,0.0,-999.0,94,-99.99,,,0.00,weatherlink.com 1.10,2013-03-11 05:56:00,
2013-03-11 02:11:00,58.3,57.0,30.11,ENE,65,0.0,-999.0,94,-99.99,,,0.00,weatherlink.com 1.10,2013-03-11 06:11:00,
2013-03-11 02:30:00,57.9,56.0,30.12,ENE,65,0.0,-999.0,94,-99.99,,,0.00,weatherlink.com 1.10,2013-03-11 06:30:00,
2013-03-11 02:41:00,57.6,56.0,30.12,ENE,65,0.0,-999.0,94,-99.99,,,0.00,weatherlink.com 1.10,2013-03-11 06:41:00,
2013-03-11 02:56:00,57.4,56.0,30.11,ENE,65,0.0,-999.0,95,-99.99,,,0.00,weatherlink.com 1.10,2013-03-11 06:56:00,
2013-03-11 03:11:00,57.1,56.0,30.10,ENE,65,0.0,-999.0,95,-99.99,,,0.00,weatherlink.com 1.10,2013-03-11 07:11:00,
2013-03-11 03:30:00,56.9,56.0,30.10,ENE,65,0.0,-999.0,95,-99.99,,,0.00,weatherlink.com 1.10,2013-03-11 07:30:00,
2013-03-11 03:41:00,56.5,55.0,30.09,ENE,65,0.0,-999.0,95,-99.99,,,0.00,weatherlink.com 1.10,2013-03-11 07:41:00,
2013-03-11 04:10:00,55.5,54.1,30.08,ENE,60,0.0,0.0,95,0.00,,,0.00,Wunderground v.1.15,2013-03-11 08:10:00,
2013-03-11 04:15:00,55.3,53.9,30.08,ENE,61,0.0,0.0,95,0.00,,,0.00,Wunderground v.1.15,2013-03-11 08:15:00,
2013-03-11 04:20:00,55.2,53.8,30.07,ENE,60,0.0,0.0,95,0.00,,,0.00,Wunderground v.1.15,2013-03-11 08:20:00,
2013-03-11 04:25:00,55.0,53.6,30.07,ENE,60,0.0,0.0,95,0.00,,,0.00,Wunderground v.1.15,2013-03-11 08:25:00,
2013-03-11 04:30:00,55.1,53.7,30.07,ENE,60,0.0,0.0,95,0.00,,,0.00,Wunderground v.1.15,2013-03-11 08:30:00,
2013-03-11 04:40:00,54.8,53.4,30.07,ENE,60,0.0,0.0,95,0.00,,,0.00,Wunderground v.1.15,2013-03-11 08:40:00,
2013-03-11 04:45:00,54.7,53.3,30.06,ENE,60,0.0,0.0,95,0.00,,,0.00,Wunderground v.1.15,2013-03-11 08:45:00,
2013-03-11 04:50:00,54.7,53.3,30.06,ENE,61,0.0,0.0,95,0.00,,,0.00,Wunderground v.1.15,2013-03-11 08:50:00,
2013-03-11 04:55:00,55.2,54.1,30.06,ENE,61,0.0,0.0,96,0.00,,,0.00,Wunderground v.1.15,2013-03-11 08:55:00,
2013-03-11 05:00:00,55.3,54.2,30.05,ENE,61,0.0,0.0,96,0.00,,,0.00,Wunderground v.1.15,2013-03-11 09:00:00,
2013-03-11 05:10:00,55.4,54.3,30.05,ENE,60,0.0,0.0,96,0.00,,,0.00,Wunderground v.1.15,2013-03-11 09:10:00,
2013-03-11 05:15:00,55.3,54.2,30.04,ENE,60,0.0,0.0,96,0.00,,,0.00,Wunderground v.1.15,2013-03-11 09:15:00,
2013-03-11 05:20:00,55.1,54.0,30.04,ENE,61,0.0,0.0,96,0.00,,,0.00,Wunderground v.1.15,2013-03-11 09:20:00,
2013-03-11 05:25:00,55.0,53.9,30.04,ENE,60,0.0,0.0,96,0.00,,,0.00,Wunderground v.1.15,2013-03-11 09:25:00,
2013-03-11 05:30:00,54.9,54.0,30.04,ENE,65,0.0,-999.0,96,-99.99,,,0.00,weatherlink.com 1.10,2013-03-11 09:30:00,
2013-03-11 05:40:00,54.7,53.6,30.04,ENE,61,0.0,0.0,96,0.00,,,0.00,Wunderground v.1.15,2013-03-11 09:40:00,
2013-03-11 05:45:00,54.7,53.6,30.04,ENE,61,0.0,0.0,96,0.00,,,0.00,Wunderground v.1.15,2013-03-11 09:45:00,
2013-03-11 05:50:00,54.8,53.7,30.04,ENE,60,0.0,0.0,96,0.00,,,0.00,Wunderground v.1.15,2013-03-11 09:50:00,
2013-03-11 05:56:00,54.9,54.0,30.04,West,259,0.0,-999.0,96,-99.99,,,0.00,weatherlink.com 1.10,2013-03-11 09:56:00,
2013-03-11 06:05:00,55.1,54.0,30.05,West,261,0.0,0.0,96,0.00,,,0.00,Wunderground v.1.15,2013-03-11 10:05:00,
2013-03-11 06:10:00,55.2,54.1,30.05,West,260,0.0,0.0,96,0.00,,,0.00,Wunderground v.1.15,2013-03-11 10:10:00,
2013-03-11 06:15:00,55.3,54.2,30.05,West,260,0.0,0.0,96,0.00,,,0.00,Wunderground v.1.15,2013-03-11 10:15:00,
2013-03-11 06:20:00,55.3,54.2,30.06,West,260,0.0,0.0,96,0.00,,,0.00,Wunderground v.1.15,2013-03-11 10:20:00,
2013-03-11 06:30:00,55.1,54.0,30.06,West,262,0.0,0.0,96,0.00,,,0.00,Wunderground v.1.15,2013-03-11 10:30:00,
2013-03-11 06:35:00,54.9,53.8,30.05,West,261,0.0,0.0,96,0.00,,,0.00,Wunderground v.1.15,2013-03-11 10:35:00,
2013-03-11 06:40:00,54.8,53.7,30.05,West,262,0.0,0.0,96,0.00,,,0.00,Wunderground v.1.15,2013-03-11 10:40:00,
2013-03-11 06:45:00,54.6,53.5,30.05,West,262,0.0,0.0,96,0.00,,,0.00,Wunderground v.1.15,2013-03-11 10:45:00,
2013-03-11 06:50:00,54.4,53.3,30.05,West,261,0.0,0.0,96,0.00,,,0.00,Wunderground v.1.15,2013-03-11 10:50:00,
2013-03-11 06:56:00,54.3,53.0,30.05,WSW,258,0.0,-999.0,96,-99.99,,,0.00,weatherlink.com 1.10,2013-03-11 10:56:00,
2013-03-11 07:05:00,54.3,53.2,30.06,West,261,0.0,0.0,96,0.00,,,0.00,Wunderground v.1.15,2013-03-11 11:05:00,
2013-03-11 07:10:00,54.2,53.1,30.05,West,262,0.0,0.0,96,0.00,,,0.00,Wunderground v.1.15,2013-03-11 11:10:00,
2013-03-11 07:20:00,54.0,52.9,30.05,West,261,0.0,0.0,96,0.00,,,0.00,Wunderground v.1.15,2013-03-11 11:20:00,
2013-03-11 07:25:00,53.9,52.8,30.05,West,262,0.0,0.0,96,0.00,,,0.00,Wunderground v.1.15,2013-03-11 11:25:00,
2013-03-11 07:30:00,53.8,52.7,30.05,West,261,0.0,0.0,96,0.00,,,0.00,Wunderground v.1.15,2013-03-11 11:30:00,
2013-03-11 07:35:00,53.7,52.6,30.05,West,262,0.0,0.0,96,0.00,,,0.00,Wunderground v.1.15,2013-03-11 11:35:00,
2013-03-11 07:41:00,53.4,52.0,30.05,West,259,0.0,-999.0,96,-99.99,,,0.00,weatherlink.com 1.10,2013-03-11 11:41:00,
2013-03-11 07:50:00,53.3,52.2,30.05,West,262,0.0,0.0,96,0.00,,,0.00,Wunderground v.1.15,2013-03-11 11:50:00,
2013-03-11 07:55:00,53.3,52.2,30.05,West,261,0.0,0.0,96,0.00,,,0.00,Wunderground v.1.15,2013-03-11 11:55:00,
2013-03-11 08:00:00,53.2,52.1,30.05,West,261,0.0,0.0,96,0.00,,,0.00,Wunderground v.1.15,2013-03-11 12:00:00,
2013-03-11 08:10:00,53.4,52.3,30.05,West,262,0.0,0.0,96,0.00,,,0.00,Wunderground v.1.15,2013-03-11 12:10:00,
2013-03-11 08:15:00,53.5,52.4,30.05,West,260,0.0,0.0,96,0.00,,,0.00,Wunderground v.1.15,2013-03-11 12:15:00,
2013-03-11 08:20:00,53.7,52.6,30.05,West,260,0.0,0.0,96,0.00,,,0.00,Wunderground v.1.15,2013-03-11 12:20:00,
2013-03-11 08:30:00,54.0,52.9,30.06,West,260,0.0,0.0,96,0.00,,,0.00,Wunderground v.1.15,2013-03-11 12:30:00,
2013-03-11 08:35:00,54.4,53.3,30.06,West,260,0.0,0.0,96,0.00,,,0.00,Wunderground v.1.15,2013-03-11 12:35:00,
2013-03-11 08:40:00,54.8,53.7,30.06,West,260,0.0,0.0,96,0.00,,,0.00,Wunderground v.1.15,2013-03-11 12:40:00,
2013-03-11 08:45:00,55.2,54.1,30.06,West,260,0.0,0.0,96,0.00,,,0.00,Wunderground v.1.15,2013-03-11 12:45:00,
2013-03-11 08:55:00,56.8,55.7,30.07,West,261,0.0,0.0,96,0.00,,,0.00,Wunderground v.1.15,2013-03-11 12:55:00,
2013-03-11 09:00:00,57.5,56.4,30.07,WSW,257,0.0,0.0,96,0.00,,,0.00,Wunderground v.1.15,2013-03-11 13:00:00,
2013-03-11 09:05:00,58.4,57.3,30.07,SW,231,0.0,0.0,96,0.00,,,0.00,Wunderground v.1.15,2013-03-11 13:05:00,
2013-03-11 09:10:00,59.5,58.4,30.07,SW,232,0.0,0.0,96,0.00,,,0.00,Wunderground v.1.15,2013-03-11 13:10:00,
2013-03-11 09:15:00,60.5,59.4,30.07,SW,224,0.0,0.0,96,0.00,,,0.00,Wunderground v.1.15,2013-03-11 13:15:00,
2013-03-11 09:25:00,63.1,60.4,30.07,ENE,70,0.0,0.0,91,0.00,,,0.00,Wunderground v.1.15,2013-03-11 13:25:00,
2013-03-11 09:30:00,64.6,59.7,30.07,NE,44,0.0,2.0,84,0.00,,,0.00,Wunderground v.1.15,2013-03-11 13:30:00,
2013-03-11 09:35:00,66.2,60.2,30.06,ESE,107,0.0,2.0,81,0.00,,,0.00,Wunderground v.1.15,2013-03-11 13:35:00,
2013-03-11 09:40:00,67.1,60.4,30.07,ESE,113,0.0,0.0,79,0.00,,,0.00,Wunderground v.1.15,2013-03-11 13:40:00,
2013-03-11 09:45:00,68.0,59.0,30.07,NNE,20,1.0,1.0,73,0.00,,,0.00,Wunderground v.1.15,2013-03-11 13:45:00,
2013-03-11 09:55:00,69.4,59.2,30.06,ESE,105,1.0,2.0,70,0.00,,,0.00,Wunderground v.1.15,2013-03-11 13:55:00,
2013-03-11 10:00:00,69.9,58.9,30.06,NNW,338,2.0,3.0,68,0.00,,,0.00,Wunderground v.1.15,2013-03-11 14:00:00,
2013-03-11 10:05:00,70.4,58.9,30.06,NNE,27,1.0,3.0,67,0.00,,,0.00,Wunderground v.1.15,2013-03-11 14:05:00,
2013-03-11 10:10:00,70.7,57.9,30.07,ESE,113,1.0,2.0,64,0.00,,,0.00,Wunderground v.1.15,2013-03-11 14:10:00,
2013-03-11 10:18:00,71.0,57.8,30.07,NNW,342,3.0,3.0,63,0.00,,,0.00,Wunderground v.1.15,2013-03-11 14:18:00,
2013-03-11 10:23:00,71.1,57.9,30.07,NE,54,0.0,5.0,63,0.00,,,0.00,Wunderground v.1.15,2013-03-11 14:23:00,
2013-03-11 10:28:00,71.3,57.6,30.07,East,86,3.0,5.0,62,0.00,,,0.00,Wunderground v.1.15,2013-03-11 14:28:00,
2013-03-11 10:33:00,71.3,56.7,30.07,NW,321,0.0,7.0,60,0.00,,,0.00,Wunderground v.1.15,2013-03-11 14:33:00,
2013-03-11 10:38:00,71.6,57.4,30.07,NE,49,5.0,10.0,61,0.00,,,0.00,Wunderground v.1.15,2013-03-11 14:38:00,
2013-03-11 10:43:00,71.6,57.0,30.06,NE,45,1.0,6.0,60,0.00,,,0.00,Wunderground v.1.15,2013-03-11 14:43:00,
2013-03-11 10:48:00,71.5,57.3,30.07,NW,311,0.0,6.0,61,0.00,,,0.00,Wunderground v.1.15,2013-03-11 14:48:00,
2013-03-11 10:53:00,71.5,57.8,30.07,NNW,340,3.0,3.0,62,0.00,,,0.00,Wunderground v.1.15,2013-03-11 14:53:00,
2013-03-11 10:58:00,71.6,57.0,30.07,SE,127,2.0,5.0,60,0.00,,,0.00,Wunderground v.1.15,2013-03-11 14:58:00,
2013-03-11 11:04:00,71.5,56.9,30.07,NE,37,0.0,4.0,60,0.00,,,0.00,Wunderground v.1.15,2013-03-11 15:04:00,
2013-03-11 11:09:00,71.6,57.0,30.06,NNE,29,1.0,5.0,60,0.00,,,0.00,Wunderground v.1.15,2013-03-11 15:09:00,
2013-03-11 11:14:00,71.5,56.9,30.06,NNE,15,4.0,6.0,60,0.00,,,0.00,Wunderground v.1.15,2013-03-11 15:14:00,
2013-03-11 11:19:00,71.3,57.2,30.06,NNE,32,0.0,6.0,61,0.00,,,0.00,Wunderground v.1.15,2013-03-11 15:19:00,
2013-03-11 11:24:00,71.3,56.7,30.06,NNE,25,2.0,3.0,60,0.00,,,0.00,Wunderground v.1.15,2013-03-11 15:24:00,
2013-03-11 11:29:00,71.3,57.2,30.06,NNW,330,0.0,5.0,61,0.00,,,0.00,Wunderground v.1.15,2013-03-11 15:29:00,
2013-03-11 11:34:00,71.5,56.9,30.07,NE,49,5.0,8.0,60,0.00,,,0.00,Wunderground v.1.15,2013-03-11 15:34:00,
2013-03-11 11:39:00,71.5,57.3,30.07,ENE,72,1.0,8.0,61,0.00,,,0.00,Wunderground v.1.15,2013-03-11 15:39:00,
2013-03-11 11:44:00,71.5,57.8,30.07,NE,40,1.0,6.0,62,0.00,,,0.00,Wunderground v.1.15,2013-03-11 15:44:00,
2013-03-11 11:49:00,71.4,56.8,30.07,NNE,20,1.0,12.0,60,0.00,,,0.00,Wunderground v.1.15,2013-03-11 15:49:00,
2013-03-11 11:54:00,71.4,57.7,30.07,East,80,3.0,5.0,62,0.00,,,0.00,Wunderground v.1.15,2013-03-11 15:54:00,
2013-03-11 11:59:00,71.2,57.1,30.07,ENE,71,3.0,7.0,61,0.00,,,0.00,Wunderground v.1.15,2013-03-11 15:59:00,
2013-03-11 12:04:00,71.1,57.4,30.08,NNE,33,3.0,4.0,62,0.00,,,0.00,Wunderground v.1.15,2013-03-11 16:04:00,
2013-03-11 12:09:00,71.0,57.3,30.08,ESE,122,0.0,4.0,62,0.00,,,0.00,Wunderground v.1.15,2013-03-11 16:09:00,
2013-03-11 12:14:00,71.2,58.4,30.07,ESE,104,1.0,3.0,64,0.00,,,0.00,Wunderground v.1.15,2013-03-11 16:14:00,
2013-03-11 12:19:00,71.6,58.8,30.07,WNW,284,0.0,5.0,64,0.00,,,0.00,Wunderground v.1.15,2013-03-11 16:19:00,
2013-03-11 12:25:00,72.4,58.2,30.06,NW,305,2.0,3.0,61,0.00,,,0.00,Wunderground v.1.15,2013-03-11 16:25:00,
2013-03-11 12:30:00,73.2,58.5,30.06,NNW,336,0.0,1.0,60,0.00,,,0.00,Wunderground v.1.15,2013-03-11 16:30:00,
2013-03-11 12:35:00,73.3,58.1,30.06,WSW,251,1.0,7.0,59,0.00,,,0.00,Wunderground v.1.15,2013-03-11 16:35:00,
2013-03-11 12:40:00,73.5,59.7,30.06,NW,323,1.0,2.0,62,0.00,,,0.00,Wunderground v.1.15,2013-03-11 16:40:00,
2013-03-11 12:45:00,73.4,57.7,30.05,SE,146,2.0,7.0,58,0.00,,,0.00,Wunderground v.1.15,2013-03-11 16:45:00,
2013-03-11 12:50:00,72.9,58.2,30.05,West,280,1.0,3.0,60,0.00,,,0.00,Wunderground v.1.15,2013-03-11 16:50:00,
2013-03-11 12:55:00,73.0,58.3,30.05,ENE,63,3.0,6.0,60,0.00,,,0.00,Wunderground v.1.15,2013-03-11 16:55:00,
2013-03-11 13:00:00,73.3,58.6,30.05,East,89,1.0,3.0,60,0.00,,,0.00,Wunderground v.1.15,2013-03-11 17:00:00,
2013-03-11 13:05:00,73.5,58.8,30.05,North,4,0.0,6.0,60,0.00,,,0.00,Wunderground v.1.15,2013-03-11 17:05:00,
2013-03-11 13:10:00,73.6,59.3,30.04,ENE,67,5.0,5.0,61,0.00,,,0.00,Wunderground v.1.15,2013-03-11 17:10:00,
2013-03-11 13:15:00,73.2,58.5,30.04,East,89,10.0,10.0,60,0.00,,,0.00,Wunderground v.1.15,2013-03-11 17:15:00,
2013-03-11 13:20:00,72.7,58.5,30.04,East,83,1.0,4.0,61,0.00,,,0.00,Wunderground v.1.15,2013-03-11 17:20:00,
2013-03-11 13:25:00,73.2,58.9,30.04,NE,46,1.0,6.0,61,0.00,,,0.00,Wunderground v.1.15,2013-03-11 17:25:00,
2013-03-11 13:30:00,73.6,59.3,30.03,NNE,22,2.0,5.0,61,0.00,,,0.00,Wunderground v.1.15,2013-03-11 17:30:00,
2013-03-11 13:35:00,73.5,59.2,30.03,ESE,103,0.0,8.0,61,0.00,,,0.00,Wunderground v.1.15,2013-03-11 17:35:00,
2013-03-11 13:40:00,74.0,58.3,30.03,NE,44,3.0,6.0,58,0.00,,,0.00,Wunderground v.1.15,2013-03-11 17:40:00,
2013-03-11 13:45:00,74.1,59.3,30.03,North,5,2.0,7.0,60,0.00,,,0.00,Wunderground v.1.15,2013-03-11 17:45:00,
2013-03-11 13:50:00,74.6,58.4,30.03,NW,308,3.0,3.0,57,0.00,,,0.00,Wunderground v.1.15,2013-03-11 17:50:00,
2013-03-11 13:55:00,74.3,58.6,30.02,ESE,105,7.0,12.0,58,0.00,,,0.00,Wunderground v.1.15,2013-03-11 17:55:00,
2013-03-11 14:00:00,73.9,57.7,30.02,NW,316,2.0,8.0,57,0.00,,,0.00,Wunderground v.1.15,2013-03-11 18:00:00,
2013-03-11 14:05:00,73.1,58.4,30.02,ENE,63,4.0,8.0,60,0.00,,,0.00,Wunderground v.1.15,2013-03-11 18:05:00,
2013-03-11 14:10:00,72.4,58.6,30.02,NE,42,3.0,8.0,62,0.00,,,0.00,Wunderground v.1.15,2013-03-11 18:10:00,
2013-03-11 14:15:00,72.1,58.8,30.01,NW,323,1.0,9.0,63,0.00,,,0.00,Wunderground v.1.15,2013-03-11 18:15:00,
2013-03-11 14:20:00,71.9,59.1,30.01,ENE,63,4.0,4.0,64,0.00,,,0.00,Wunderground v.1.15,2013-03-11 18:20:00,
2013-03-11 14:25:00,71.8,59.0,30.00,SSE,152,0.0,9.0,64,0.00,,,0.00,Wunderground v.1.15,2013-03-11 18:25:00,
2013-03-11 14:30:00,71.8,58.5,30.00,East,79,0.0,6.0,63,0.00,,,0.00,Wunderground v.1.15,2013-03-11 18:30:00,
2013-03-11 14:35:00,71.9,58.2,29.99,SE,142,0.0,8.0,62,0.00,,,0.00,Wunderground v.1.15,2013-03-11 18:35:00,
2013-03-11 14:40:00,72.2,59.3,29.99,NNE,18,3.0,4.0,64,0.00,,,0.00,Wunderground v.1.15,2013-03-11 18:40:00,
2013-03-11 14:45:00,72.3,58.5,29.99,NE,45,4.0,10.0,62,0.00,,,0.00,Wunderground v.1.15,2013-03-11 18:45:00,
2013-03-11 14:51:00,72.5,59.2,29.98,East,96,0.0,3.0,63,0.00,,,0.00,Wunderground v.1.15,2013-03-11 18:51:00,
2013-03-11 14:56:00,72.4,59.5,29.98,NNE,19,2.0,7.0,64,0.00,,,0.00,Wunderground v.1.15,2013-03-11 18:56:00,
2013-03-11 15:01:00,72.5,59.2,29.98,NNW,333,0.0,6.0,63,0.00,,,0.00,Wunderground v.1.15,2013-03-11 19:01:00,
2013-03-11 15:06:00,72.4,60.0,29.98,NE,39,1.0,7.0,65,0.00,,,0.00,Wunderground v.1.15,2013-03-11 19:06:00,
2013-03-11 15:11:00,71.8,59.4,29.98,ENE,60,2.0,7.0,65,0.00,,,0.00,Wunderground v.1.15,2013-03-11 19:11:00,
2013-03-11 15:17:00,71.5,59.5,29.98,NNW,345,1.0,8.0,66,0.00,,,0.00,Wunderground v.1.15,2013-03-11 19:17:00,
2013-03-11 15:22:00,71.3,59.4,29.98,WNW,299,3.0,4.0,66,0.00,,,0.00,Wunderground v.1.15,2013-03-11 19:22:00,
2013-03-11 15:27:00,71.3,59.8,29.98,SE,139,1.0,5.0,67,0.00,,,0.00,Wunderground v.1.15,2013-03-11 19:27:00,
2013-03-11 15:32:00,71.1,59.6,29.97,East,79,4.0,6.0,67,0.00,,,0.00,Wunderground v.1.15,2013-03-11 19:32:00,
2013-03-11 15:37:00,71.2,60.1,29.97,WSW,242,0.0,6.0,68,0.00,,,0.00,Wunderground v.1.15,2013-03-11 19:37:00,
2013-03-11 15:42:00,71.2,59.7,29.96,ENE,67,7.0,8.0,67,0.00,,,0.00,Wunderground v.1.15,2013-03-11 19:42:00,
2013-03-11 15:47:00,71.0,59.5,29.96,North,1,4.0,8.0,67,0.00,,,0.00,Wunderground v.1.15,2013-03-11 19:47:00,
2013-03-11 15:52:00,70.7,59.6,29.96,ENE,77,4.0,6.0,68,0.00,,,0.00,Wunderground v.1.15,2013-03-11 19:52:00,
2013-03-11 15:57:00,70.5,59.8,29.95,NNE,30,3.0,7.0,69,0.00,,,0.00,Wunderground v.1.15,2013-03-11 19:57:00,
2013-03-11 16:02:00,70.4,60.1,29.95,NE,50,0.0,5.0,70,0.00,,,0.00,Wunderground v.1.15,2013-03-11 20:02:00,
2013-03-11 16:07:00,70.4,60.1,29.96,SE,134,1.0,5.0,70,0.00,,,0.00,Wunderground v.1.15,2013-03-11 20:07:00,
2013-03-11 16:12:00,70.4,60.1,29.96,North,1,1.0,4.0,70,0.00,,,0.00,Wunderground v.1.15,2013-03-11 20:12:00,
2013-03-11 16:17:00,70.3,60.4,29.96,NNE,25,0.0,5.0,71,0.00,,,0.00,Wunderground v.1.15,2013-03-11 20:17:00,
2013-03-11 16:22:00,70.2,60.4,29.95,ENE,63,2.0,5.0,71,0.00,,,0.00,Wunderground v.1.15,2013-03-11 20:22:00,
2013-03-11 16:27:00,70.1,60.3,29.95,NE,49,3.0,6.0,71,0.00,,,0.00,Wunderground v.1.15,2013-03-11 20:27:00,
2013-03-11 16:32:00,70.0,60.6,29.95,North,1,4.0,7.0,72,0.00,,,0.00,Wunderground v.1.15,2013-03-11 20:32:00,
2013-03-11 16:37:00,69.9,60.5,29.94,NW,319,0.0,7.0,72,0.00,,,0.00,Wunderground v.1.15,2013-03-11 20:37:00,
2013-03-11 16:42:00,69.7,60.0,29.94,NNW,334,3.0,-999.0,72,-99.99,,,0.00,weatherlink.com 1.10,2013-03-11 20:42:00,
2013-03-11 16:47:00,69.9,60.5,29.94,WSW,250,2.0,5.0,72,0.00,,,0.00,Wunderground v.1.15,2013-03-11 20:47:00,
2013-03-11 16:52:00,70.0,60.6,29.94,North,6,0.0,4.0,72,0.00,,,0.00,Wunderground v.1.15,2013-03-11 20:52:00,
2013-03-11 17:12:00,69.8,60.0,29.93,NE,54,5.0,-999.0,71,-99.99,,,0.00,weatherlink.com 1.10,2013-03-11 21:12:00,
2013-03-11 17:31:00,69.4,60.0,29.94,NE,42,1.0,-999.0,73,-99.99,,,0.00,weatherlink.com 1.10,2013-03-11 21:31:00,
2013-03-11 17:42:00,69.1,60.0,29.94,NNE,22,2.0,-999.0,73,-99.99,,,0.00,weatherlink.com 1.10,2013-03-11 21:42:00,
2013-03-11 17:57:00,69.0,60.0,29.93,East,80,1.0,-999.0,74,-99.99,,,0.00,weatherlink.com 1.10,2013-03-11 21:57:00,
2013-03-11 18:12:00,68.7,61.0,29.93,East,97,2.0,-999.0,75,-99.99,,,0.00,weatherlink.com 1.10,2013-03-11 22:12:00,
2013-03-11 18:31:00,68.5,60.0,29.94,East,94,1.0,-999.0,75,-99.99,,,0.00,weatherlink.com 1.10,2013-03-11 22:31:00,
2013-03-11 18:42:00,68.3,60.0,29.93,East,101,1.0,-999.0,75,-99.99,,,0.00,weatherlink.com 1.10,2013-03-11 22:42:00,
2013-03-11 18:57:00,68.1,60.0,29.92,East,99,1.0,-999.0,74,-99.99,,,0.00,weatherlink.com 1.10,2013-03-11 22:57:00,
2013-03-11 19:12:00,67.7,60.0,29.92,East,90,1.0,-999.0,75,-99.99,,,0.00,weatherlink.com 1.10,2013-03-11 23:12:00,
2013-03-11 19:32:00,67.4,60.0,29.92,ENE,69,0.0,-999.0,76,-99.99,,,0.00,weatherlink.com 1.10,2013-03-11 23:32:00,
2013-03-11 19:42:00,67.3,60.0,29.92,NNE,31,5.0,-999.0,76,-99.99,,,0.00,weatherlink.com 1.10,2013-03-11 23:42:00,
2013-03-11 19:57:00,67.1,60.0,29.91,ESE,102,0.0,-999.0,77,-99.99,,,0.00,weatherlink.com 1.10,2013-03-11 23:57:00,
2013-03-11 20:12:00,67.0,60.0,29.91,East,98,1.0,-999.0,77,-99.99,,,0.00,weatherlink.com 1.10,2013-03-12 00:12:00,
2013-03-11 20:27:00,66.8,60.0,29.91,ENE,74,2.0,-999.0,78,-99.99,,,0.00,weatherlink.com 1.10,2013-03-12 00:27:00,
2013-03-11 20:42:00,66.8,60.0,29.91,East,101,0.0,-999.0,79,-99.99,,,0.00,weatherlink.com 1.10,2013-03-12 00:42:00,
2013-03-11 20:57:00,67.0,61.0,29.92,NNE,24,0.0,-999.0,80,-99.99,,,0.00,weatherlink.com 1.10,2013-03-12 00:57:00,
2013-03-11 21:12:00,67.1,61.0,29.92,NNE,24,5.0,-999.0,80,-99.99,,,0.00,weatherlink.com 1.10,2013-03-12 01:12:00,
2013-03-11 21:27:00,67.3,61.0,29.92,NNE,25,1.0,-999.0,79,-99.99,,,0.00,weatherlink.com 1.10,2013-03-12 01:27:00,
2013-03-11 21:42:00,67.3,61.0,29.93,ENE,65,3.0,-999.0,80,-99.99,,,0.00,weatherlink.com 1.10,2013-03-12 01:42:00,
2013-03-11 21:57:00,67.5,61.0,29.93,East,83,0.0,-999.0,79,-99.99,,,0.00,weatherlink.com 1.10,2013-03-12 01:57:00,
2013-03-11 22:12:00,67.6,61.0,29.93,SE,135,1.0,-999.0,79,-99.99,,,0.00,weatherlink.com 1.10,2013-03-12 02:12:00,
2013-03-11 22:32:00,67.7,61.0,29.94,WNW,296,2.0,-999.0,79,-99.99,,,0.00,weatherlink.com 1.10,2013-03-12 02:32:00,
2013-03-11 22:42:00,67.8,61.0,29.95,NNE,31,5.0,-999.0,79,-99.99,,,0.00,weatherlink.com 1.10,2013-03-12 02:42:00,
2013-03-11 22:57:00,67.8,61.0,29.95,NNE,24,4.0,-999.0,80,-99.99,,,0.00,weatherlink.com 1.10,2013-03-12 02:57:00,
2013-03-11 23:12:00,67.7,62.0,29.95,NNW,346,1.0,-999.0,81,-99.99,,,0.00,weatherlink.com 1.10,2013-03-12 03:12:00,
2013-03-11 23:27:00,67.6,62.0,29.94,ENE,61,0.0,-999.0,81,-99.99,,,0.00,weatherlink.com 1.10,2013-03-12 03:27:00,
2013-03-11 23:42:00,67.5,62.0,29.94,East,97,0.0,-999.0,82,-99.99,,,0.00,weatherlink.com 1.10,2013-03-12 03:42:00,
2013-03-11 23:57:00,67.2,62.0,29.93,East,86,0.0,-999.0,83,-99.99,,,0.00,weatherlink.com 1.10,2013-03-12 03:57:00,